createdAt,value
2022-08-19T00:00:55.160Z,50.834812
2022-08-19T00:01:54.994Z,50.834808
2022-08-19T00:02:55.213Z,50.834835
2022-08-19T00:03:54.978Z,50.834808
2022-08-19T00:04:55.040Z,50.834831
2022-08-19T00:05:55.007Z,50.834827
2022-08-19T00:06:54.998Z,50.834824
2022-08-19T00:07:54.924Z,50.834820
2022-08-19T00:08:54.991Z,50.834797
2022-08-19T00:09:54.951Z,50.834808
2022-08-19T00:10:55.621Z,50.834812
2022-08-19T00:11:54.947Z,50.834785
2022-08-19T00:12:54.932Z,50.834789
2022-08-19T00:13:56.365Z,50.834820
2022-08-19T00:14:54.894Z,50.834824
2022-08-19T00:15:54.947Z,50.834805
2022-08-19T00:16:54.921Z,50.834793
2022-08-19T00:17:54.863Z,50.834801
2022-08-19T00:18:54.871Z,50.834816
2022-08-19T00:19:54.857Z,50.834797
2022-08-19T00:20:54.832Z,50.834831
2022-08-19T00:21:54.867Z,50.834812
2022-08-19T00:22:54.947Z,50.834816
2022-08-19T00:23:54.832Z,50.834824
2022-08-19T00:24:54.820Z,50.834835
2022-08-19T00:25:54.836Z,50.834824
2022-08-19T00:26:54.836Z,50.834801
2022-08-19T00:27:54.816Z,50.834827
2022-08-19T00:28:54.830Z,50.834805
2022-08-19T00:29:54.761Z,50.834805
2022-08-19T00:30:54.807Z,50.834808
2022-08-19T00:31:54.773Z,50.834816
2022-08-19T00:32:54.813Z,50.834816
2022-08-19T00:33:54.806Z,50.834835
2022-08-19T00:34:54.827Z,50.834805
2022-08-19T00:35:55.997Z,50.834816
2022-08-19T00:36:54.766Z,50.834797
2022-08-19T00:37:54.732Z,50.834797
2022-08-19T00:38:54.722Z,50.834808
2022-08-19T00:39:54.723Z,50.834801
2022-08-19T00:40:54.691Z,50.834820
2022-08-19T00:41:54.716Z,50.834824
2022-08-19T00:42:54.674Z,50.834820
2022-08-19T00:43:54.689Z,50.834835
2022-08-19T00:44:54.648Z,50.834801
2022-08-19T00:45:54.664Z,50.834827
2022-08-19T00:46:55.405Z,50.834820
2022-08-19T00:47:54.632Z,50.834805
2022-08-19T00:48:54.644Z,50.834801
2022-08-19T00:49:54.648Z,50.834808
2022-08-19T00:50:54.627Z,50.834820
2022-08-19T00:51:54.625Z,50.834793
2022-08-19T00:52:54.779Z,50.834793
2022-08-19T00:53:54.673Z,50.834797
2022-08-19T00:54:54.620Z,50.834808
2022-08-19T00:55:54.588Z,50.834808
2022-08-19T00:56:54.588Z,50.834812
2022-08-19T00:57:54.555Z,50.834824
2022-08-19T00:58:54.560Z,50.834820
2022-08-19T01:00:01.654Z,50.834808
2022-08-19T01:00:55.531Z,50.834812
2022-08-19T01:01:54.587Z,50.834801
2022-08-19T01:02:54.707Z,50.834816
2022-08-19T01:03:57.564Z,50.834824
2022-08-19T01:04:54.527Z,50.834831
2022-08-19T01:05:54.567Z,50.834839
2022-08-19T01:06:54.469Z,50.834858
2022-08-19T01:07:54.476Z,50.834831
2022-08-19T01:08:54.510Z,50.834831
2022-08-19T01:09:54.458Z,50.834808
2022-08-19T01:10:54.522Z,50.834827
2022-08-19T01:11:54.542Z,50.834827
2022-08-19T01:12:54.577Z,50.834850
2022-08-19T01:13:54.436Z,50.834850
2022-08-19T01:14:54.446Z,50.834854
2022-08-19T01:15:54.487Z,50.834839
2022-08-19T01:16:54.441Z,50.834839
2022-08-19T01:17:54.474Z,50.834827
2022-08-19T01:18:54.400Z,50.834805
2022-08-19T01:19:54.528Z,50.834808
2022-08-19T01:20:54.383Z,50.834820
2022-08-19T01:21:54.434Z,50.834835
2022-08-19T01:22:54.591Z,50.834831
2022-08-19T01:23:54.353Z,50.834839
2022-08-19T01:24:54.341Z,50.834843
2022-08-19T01:25:55.396Z,50.834824
2022-08-19T01:26:54.558Z,50.834843
2022-08-19T01:27:54.399Z,50.834858
2022-08-19T01:28:54.419Z,50.834843
2022-08-19T01:29:54.525Z,50.834789
2022-08-19T01:30:54.317Z,50.834827
2022-08-19T01:31:54.346Z,50.834801
2022-08-19T01:32:54.611Z,50.834816
2022-08-19T01:33:54.265Z,50.834850
2022-08-19T01:34:54.318Z,50.834827
2022-08-19T01:35:54.292Z,50.834835
2022-08-19T01:36:54.259Z,50.834827
2022-08-19T01:37:54.244Z,50.834839
2022-08-19T01:38:54.252Z,50.834843
2022-08-19T01:39:54.377Z,50.834801
2022-08-19T01:40:54.203Z,50.834808
2022-08-19T01:41:54.194Z,50.834789
2022-08-19T01:42:54.388Z,50.834839
2022-08-19T01:44:13.953Z,50.834843
2022-08-19T01:44:55.199Z,50.834866
2022-08-19T02:05:07.610Z,50.834698
2022-08-19T02:06:07.686Z,50.834610
2022-08-19T02:07:07.644Z,50.834774
2022-08-19T02:08:07.645Z,50.834770
2022-08-19T02:09:07.649Z,50.834766
2022-08-19T02:10:09.405Z,50.834702
2022-08-19T02:11:07.563Z,50.834713
2022-08-19T02:12:07.553Z,50.834747
2022-08-19T02:13:07.560Z,50.834782
2022-08-19T02:14:07.597Z,50.834766
2022-08-19T02:15:39.456Z,50.834785
2022-08-19T02:16:07.514Z,50.834805
2022-08-19T02:17:07.552Z,50.834820
2022-08-19T02:18:07.514Z,50.834805
2022-08-19T02:19:07.479Z,50.834835
2022-08-19T02:20:07.468Z,50.834827
2022-08-19T02:21:07.499Z,50.834843
2022-08-19T02:22:07.457Z,50.834835
2022-08-19T02:23:13.480Z,50.834831
2022-08-19T02:24:08.469Z,50.834877
2022-08-19T02:25:07.446Z,50.834797
2022-08-19T02:26:07.746Z,50.834839
2022-08-19T02:27:07.497Z,50.834885
2022-08-19T02:28:07.421Z,50.834877
2022-08-19T02:29:07.431Z,50.834831
2022-08-19T02:30:07.400Z,50.834805
2022-08-19T02:31:07.389Z,50.834831
2022-08-19T02:32:07.431Z,50.834778
2022-08-19T02:33:07.427Z,50.834801
2022-08-19T02:34:07.376Z,50.834816
2022-08-19T02:35:12.483Z,50.834846
2022-08-19T02:36:08.368Z,50.834854
2022-08-19T02:37:07.357Z,50.834846
2022-08-19T02:38:07.368Z,50.834835
2022-08-19T02:39:07.338Z,50.834801
2022-08-19T02:40:12.370Z,50.834827
2022-08-19T02:41:08.351Z,50.834797
2022-08-19T02:42:07.322Z,50.834816
2022-08-19T02:43:07.324Z,50.834801
2022-08-19T02:44:26.362Z,50.834782
2022-08-19T02:45:08.286Z,50.834793
2022-08-19T02:46:07.281Z,50.834774
2022-08-19T02:47:07.295Z,50.834774
2022-08-19T02:48:14.878Z,50.834766
2022-08-19T02:49:08.299Z,50.834785
2022-08-19T02:50:07.268Z,50.834797
2022-08-19T02:51:07.245Z,50.834770
2022-08-19T02:52:07.248Z,50.834789
2022-08-19T02:53:07.254Z,50.834801
2022-08-19T02:54:07.259Z,50.834801
2022-08-19T02:55:07.248Z,50.834801
2022-08-19T02:56:07.216Z,50.834805
2022-08-19T02:57:07.192Z,50.834797
2022-08-19T02:58:08.228Z,50.834812
2022-08-19T02:59:07.195Z,50.834793
2022-08-19T03:00:07.248Z,50.834824
2022-08-19T03:01:07.208Z,50.834805
2022-08-19T03:02:07.160Z,50.834820
2022-08-19T03:03:07.155Z,50.834808
2022-08-19T03:04:07.173Z,50.834820
2022-08-19T03:05:07.211Z,50.834808
2022-08-19T03:06:07.137Z,50.834805
2022-08-19T03:07:10.607Z,50.834816
2022-08-19T03:08:07.135Z,50.834801
2022-08-19T03:09:07.226Z,50.834805
2022-08-19T03:10:07.141Z,50.834816
2022-08-19T03:11:07.117Z,50.834805
2022-08-19T03:12:07.107Z,50.834808
2022-08-19T03:13:07.089Z,50.834808
2022-08-19T03:14:07.092Z,50.834824
2022-08-19T03:15:07.067Z,50.834824
2022-08-19T03:16:07.088Z,50.834816
2022-08-19T03:17:07.062Z,50.834812
2022-08-19T03:18:07.039Z,50.834824
2022-08-19T03:19:07.238Z,50.834824
2022-08-19T03:20:07.046Z,50.834831
2022-08-19T03:21:07.022Z,50.834827
2022-08-19T03:22:08.028Z,50.834816
2022-08-19T03:23:07.004Z,50.834808
2022-08-19T03:24:07.036Z,50.834812
2022-08-19T03:25:07.071Z,50.834816
2022-08-19T03:26:15.912Z,50.834820
2022-08-19T03:27:07.968Z,50.834824
2022-08-19T03:28:06.976Z,50.834831
2022-08-19T03:29:06.979Z,50.834854
2022-08-19T03:30:06.956Z,50.834850
2022-08-19T03:31:41.611Z,50.834831
2022-08-19T03:32:07.968Z,50.834850
2022-08-19T03:33:07.941Z,50.834854
2022-08-19T03:34:08.083Z,50.834827
2022-08-19T03:35:06.912Z,50.834827
2022-08-19T03:36:06.933Z,50.834797
2022-08-19T03:37:06.919Z,50.834808
2022-08-19T03:38:06.925Z,50.834789
2022-08-19T03:39:06.905Z,50.834785
2022-08-19T03:40:06.922Z,50.834797
2022-08-19T03:41:07.633Z,50.834831
2022-08-19T03:42:32.680Z,50.834827
2022-08-19T03:43:07.872Z,50.834827
2022-08-19T03:44:06.883Z,50.834827
2022-08-19T03:45:07.883Z,50.834827
2022-08-19T03:46:06.837Z,50.834824
2022-08-19T04:05:11.482Z,50.834869
2022-08-19T04:06:11.504Z,50.834805
2022-08-19T04:07:11.506Z,50.834812
2022-08-19T04:08:13.929Z,50.834805
2022-08-19T04:09:13.068Z,50.834793
2022-08-19T04:10:11.434Z,50.834793
2022-08-19T04:11:11.436Z,50.834793
2022-08-19T04:12:11.653Z,50.834785
2022-08-19T04:13:11.423Z,50.834774
2022-08-19T04:14:11.521Z,50.834782
2022-08-19T04:15:11.382Z,50.834789
2022-08-19T04:16:11.407Z,50.834789
2022-08-19T04:17:11.918Z,50.834816
2022-08-19T04:18:11.367Z,50.834820
2022-08-19T04:19:11.372Z,50.834797
2022-08-19T04:20:11.397Z,50.834785
2022-08-19T04:21:11.359Z,50.834778
2022-08-19T04:22:11.340Z,50.834797
2022-08-19T04:23:11.349Z,50.834793
2022-08-19T04:24:11.323Z,50.834812
2022-08-19T04:25:11.350Z,50.834793
2022-08-19T04:26:11.329Z,50.834805
2022-08-19T04:27:11.316Z,50.834801
2022-08-19T04:28:11.322Z,50.834743
2022-08-19T04:29:12.668Z,50.834782
2022-08-19T04:30:12.300Z,50.834778
2022-08-19T04:31:11.301Z,50.834774
2022-08-19T04:32:11.258Z,50.834774
2022-08-19T04:33:11.280Z,50.834747
2022-08-19T04:34:11.239Z,50.834774
2022-08-19T04:35:17.015Z,50.834782
2022-08-19T04:36:12.349Z,50.834789
2022-08-19T04:37:11.220Z,50.834782
2022-08-19T04:38:11.213Z,50.834770
2022-08-19T04:39:11.233Z,50.834778
2022-08-19T04:40:11.303Z,50.834782
2022-08-19T04:41:11.219Z,50.834778
2022-08-19T04:42:11.226Z,50.834770
2022-08-19T04:43:12.068Z,50.834763
2022-08-19T04:44:11.197Z,50.834785
2022-08-19T04:45:12.365Z,50.834789
2022-08-19T04:46:11.215Z,50.834808
2022-08-19T04:47:12.181Z,50.834778
2022-08-19T04:48:26.508Z,50.834782
2022-08-19T04:49:12.950Z,50.834770
2022-08-19T04:50:11.137Z,50.834759
2022-08-19T04:51:11.149Z,50.834763
2022-08-19T04:52:11.117Z,50.834751
2022-08-19T04:53:11.134Z,50.834782
2022-08-19T04:54:11.101Z,50.834759
2022-08-19T04:55:11.115Z,50.834778
2022-08-19T04:56:11.115Z,50.834766
2022-08-19T04:57:12.063Z,50.834789
2022-08-19T04:58:11.091Z,50.834785
2022-08-19T04:59:11.124Z,50.834785
2022-08-19T05:00:11.058Z,50.834801
2022-08-19T05:01:11.137Z,50.834778
2022-08-19T05:02:11.065Z,50.834782
2022-08-19T05:03:11.047Z,50.834789
2022-08-19T05:04:11.070Z,50.834785
2022-08-19T05:05:11.033Z,50.834785
2022-08-19T05:06:12.011Z,50.834797
2022-08-19T05:07:11.043Z,50.834797
2022-08-19T05:08:10.986Z,50.834797
2022-08-19T05:09:11.017Z,50.834816
2022-08-19T05:10:10.977Z,50.834812
2022-08-19T05:11:11.006Z,50.834774
2022-08-19T05:12:11.613Z,50.834789
2022-08-19T05:13:10.952Z,50.834782
2022-08-19T05:14:10.983Z,50.834805
2022-08-19T05:15:10.950Z,50.834797
2022-08-19T05:16:10.934Z,50.834789
2022-08-19T05:17:27.226Z,50.834789
2022-08-19T05:18:12.920Z,50.834793
2022-08-19T05:19:12.082Z,50.834812
2022-08-19T05:20:10.920Z,50.834789
2022-08-19T05:21:10.918Z,50.834774
2022-08-19T05:22:10.891Z,50.834785
2022-08-19T05:23:13.396Z,50.834782
2022-08-19T05:24:11.872Z,50.834797
2022-08-19T05:25:13.363Z,50.834801
2022-08-19T05:26:11.858Z,50.834812
2022-08-19T05:27:10.853Z,50.834801
2022-08-19T05:28:10.860Z,50.834808
2022-08-19T05:29:10.866Z,50.834812
2022-08-19T05:30:10.931Z,50.834812
2022-08-19T05:31:10.822Z,50.834812
2022-08-19T05:32:10.853Z,50.834824
2022-08-19T05:33:10.867Z,50.834820
2022-08-19T05:34:18.341Z,50.834835
2022-08-19T05:35:11.814Z,50.834812
2022-08-19T05:36:10.834Z,50.834808
2022-08-19T05:37:10.774Z,50.834789
2022-08-19T05:38:10.783Z,50.834812
2022-08-19T05:39:10.767Z,50.834824
2022-08-19T05:40:10.871Z,50.834835
2022-08-19T05:41:10.796Z,50.834824
2022-08-19T05:42:10.753Z,50.834816
2022-08-19T05:43:10.764Z,50.834824
2022-08-19T05:44:10.749Z,50.834820
2022-08-19T05:45:10.728Z,50.834805
2022-08-19T05:46:10.741Z,50.834801
2022-08-19T05:47:10.713Z,50.834812
2022-08-19T05:48:11.633Z,50.834805
2022-08-19T05:49:10.724Z,50.834797
2022-08-19T05:50:10.706Z,50.834808
2022-08-19T05:51:10.728Z,50.834801
2022-08-19T05:52:10.702Z,50.834797
2022-08-19T05:53:10.702Z,50.834816
2022-08-19T05:54:10.665Z,50.834805
2022-08-19T05:55:10.652Z,50.834808
2022-08-19T05:56:10.716Z,50.834820
2022-08-19T05:57:13.294Z,50.834805
2022-08-19T05:58:10.712Z,50.834831
2022-08-19T05:59:10.633Z,50.834812
2022-08-19T06:00:10.639Z,50.834816
2022-08-19T06:01:10.647Z,50.834808
2022-08-19T06:02:10.664Z,50.834797
2022-08-19T06:03:12.556Z,50.834808
2022-08-19T06:04:10.593Z,50.834824
2022-08-19T06:05:11.595Z,50.834827
2022-08-19T06:06:10.579Z,50.834816
2022-08-19T06:07:12.144Z,50.834812
2022-08-19T06:08:11.571Z,50.834820
2022-08-19T06:09:10.643Z,50.834827
2022-08-19T06:10:10.569Z,50.834801
2022-08-19T06:11:10.541Z,50.834812
2022-08-19T06:12:10.637Z,50.834816
2022-08-19T06:13:10.544Z,50.834816
2022-08-19T06:14:16.441Z,50.834808
2022-08-19T06:15:11.520Z,50.834812
2022-08-19T06:16:10.526Z,50.834820
2022-08-19T06:17:10.517Z,50.834808
2022-08-19T06:18:10.487Z,50.834816
2022-08-19T06:19:10.476Z,50.834797
2022-08-19T06:20:10.459Z,50.834827
2022-08-19T06:21:10.457Z,50.834820
2022-08-19T06:22:10.497Z,50.834812
2022-08-19T06:23:10.449Z,50.834812
2022-08-19T06:24:11.425Z,50.834812
2022-08-19T06:25:10.460Z,50.834808
2022-08-19T06:26:10.420Z,50.834835
2022-08-19T06:27:10.422Z,50.834820
2022-08-19T06:28:17.773Z,50.834816
2022-08-19T06:29:12.384Z,50.834808
2022-08-19T06:30:11.381Z,50.834805
2022-08-19T06:31:10.374Z,50.834805
2022-08-19T06:32:10.359Z,50.834789
2022-08-19T06:33:10.375Z,50.834793
2022-08-19T06:34:10.354Z,50.834785
2022-08-19T06:35:10.371Z,50.834789
2022-08-19T06:36:11.092Z,50.834785
2022-08-19T06:37:10.330Z,50.834793
2022-08-19T06:38:10.393Z,50.834805
2022-08-19T06:39:10.312Z,50.834801
2022-08-19T06:40:10.386Z,50.834808
2022-08-19T06:41:10.298Z,50.834808
2022-08-19T06:42:11.097Z,50.834816
2022-08-19T06:43:11.132Z,50.834816
2022-08-19T06:44:13.256Z,50.834805
2022-08-19T06:45:10.294Z,50.834793
2022-08-19T06:46:10.269Z,50.834778
2022-08-19T06:47:14.902Z,50.834793
2022-08-19T06:48:11.664Z,50.834789
2022-08-19T06:49:10.237Z,50.834816
2022-08-19T06:50:10.266Z,50.834812
2022-08-19T06:51:10.217Z,50.834808
2022-08-19T06:52:10.218Z,50.834827
2022-08-19T06:53:10.199Z,50.834820
2022-08-19T06:54:19.258Z,50.834850
2022-08-19T06:55:11.195Z,50.834831
2022-08-19T06:56:10.208Z,50.834850
2022-08-19T06:57:10.173Z,50.834835
2022-08-19T06:58:10.167Z,50.834816
2022-08-19T06:59:10.161Z,50.834839
2022-08-19T07:00:12.836Z,50.834824
2022-08-19T07:01:11.157Z,50.834843
2022-08-19T07:02:10.159Z,50.834827
2022-08-19T07:03:12.926Z,50.834839
2022-08-19T07:04:12.003Z,50.834831
2022-08-19T07:05:10.201Z,50.834801
2022-08-19T07:06:21.320Z,50.834839
2022-08-19T07:07:19.722Z,50.834827
2022-08-19T07:08:11.139Z,50.834831
2022-08-19T07:09:10.083Z,50.834827
2022-08-19T07:10:10.090Z,50.834820
2022-08-19T07:11:10.847Z,50.834816
2022-08-19T07:12:10.083Z,50.834824
2022-08-19T07:13:10.079Z,50.834827
2022-08-19T07:14:18.880Z,50.834827
2022-08-19T07:15:11.044Z,50.834846
2022-08-19T07:16:10.039Z,50.834831
2022-08-19T07:17:10.024Z,50.834805
2022-08-19T07:18:11.761Z,50.834850
2022-08-19T07:19:15.647Z,50.834839
2022-08-19T07:20:11.002Z,50.834854
2022-08-19T07:21:10.023Z,50.834862
2022-08-19T07:22:09.998Z,50.834858
2022-08-19T07:23:09.984Z,50.834835
2022-08-19T07:24:10.976Z,50.834843
2022-08-19T07:25:10.549Z,50.834824
2022-08-19T07:26:09.989Z,50.834839
2022-08-19T07:27:13.822Z,50.834850
2022-08-19T07:28:22.399Z,50.834831
2022-08-19T07:29:10.938Z,50.834839
2022-08-19T07:30:11.609Z,50.834858
2022-08-19T07:31:09.922Z,50.834854
2022-08-19T07:32:11.573Z,50.834854
2022-08-19T07:33:09.944Z,50.834858
2022-08-19T07:34:09.883Z,50.834839
2022-08-19T07:35:09.892Z,50.834846
2022-08-19T07:36:09.882Z,50.834839
2022-08-19T07:37:09.865Z,50.834846
2022-08-19T07:38:09.894Z,50.834858
2022-08-19T07:39:09.859Z,50.834877
2022-08-19T07:40:09.884Z,50.834839
2022-08-19T07:41:09.849Z,50.834812
2022-08-19T07:42:09.855Z,50.834843
2022-08-19T07:43:13.956Z,50.834827
2022-08-19T07:44:10.845Z,50.834801
2022-08-19T07:45:09.819Z,50.834831
2022-08-19T07:47:48.214Z,50.834831
2022-08-19T07:48:10.791Z,50.834827
2022-08-19T07:49:09.783Z,50.834835
2022-08-19T07:50:09.850Z,50.834827
2022-08-19T07:51:09.814Z,50.834843
2022-08-19T07:52:09.759Z,50.834820
2022-08-19T07:53:09.753Z,50.834831
2022-08-19T07:54:09.741Z,50.834827
2022-08-19T07:55:39.821Z,50.834831
2022-08-19T07:56:10.717Z,50.834827
2022-08-19T07:57:09.721Z,50.834827
2022-08-19T07:58:09.736Z,50.834850
2022-08-19T07:59:09.707Z,50.834831
2022-08-19T08:00:09.713Z,50.834843
2022-08-19T08:01:12.066Z,50.834835
2022-08-19T08:02:09.733Z,50.834843
2022-08-19T08:03:09.696Z,50.834831
2022-08-19T08:04:09.666Z,50.834824
2022-08-19T08:05:09.669Z,50.834831
2022-08-19T08:06:09.659Z,50.834831
2022-08-19T08:07:11.631Z,50.834831
2022-08-19T08:08:09.630Z,50.834824
2022-08-19T08:09:09.641Z,50.834846
2022-08-19T08:10:20.519Z,50.834839
2022-08-19T08:11:11.664Z,50.834843
2022-08-19T08:12:32.825Z,50.834839
2022-08-19T08:13:11.803Z,50.834854
2022-08-19T08:14:09.587Z,50.834877
2022-08-19T08:15:39.955Z,50.834866
2022-08-19T08:16:13.866Z,50.834850
2022-08-19T08:17:10.783Z,50.834843
2022-08-19T08:18:09.615Z,50.834805
2022-08-19T08:19:14.706Z,50.834835
2022-08-19T08:20:11.159Z,50.834827
2022-08-19T08:21:09.594Z,50.834839
2022-08-19T08:22:09.529Z,50.834843
2022-08-19T08:23:10.550Z,50.834812
2022-08-19T08:24:09.548Z,50.834812
2022-08-19T08:25:09.586Z,50.834827
2022-08-19T08:26:09.502Z,50.834812
2022-08-19T08:27:11.152Z,50.834824
2022-08-19T08:28:09.521Z,50.834820
2022-08-19T08:29:12.299Z,50.834846
2022-08-19T08:30:09.531Z,50.834854
2022-08-19T08:31:09.913Z,50.834835
2022-08-19T08:32:14.051Z,50.834835
2022-08-19T08:33:10.560Z,50.834831
2022-08-19T08:34:09.481Z,50.834824
2022-08-19T08:35:09.447Z,50.834824
2022-08-19T08:36:09.519Z,50.834827
2022-08-19T08:37:09.440Z,50.834820
2022-08-19T08:38:09.435Z,50.834869
2022-08-19T08:39:09.510Z,50.834843
2022-08-19T08:40:13.045Z,50.834854
2022-08-19T08:41:10.411Z,50.834846
2022-08-19T08:42:10.434Z,50.834831
2022-08-19T08:43:10.844Z,50.834827
2022-08-19T08:44:09.418Z,50.834854
2022-08-19T08:45:10.403Z,50.834831
2022-08-19T08:46:09.422Z,50.834873
2022-08-19T08:47:09.389Z,50.834839
2022-08-19T08:48:22.282Z,50.834854
2022-08-19T08:49:10.366Z,50.834854
2022-08-19T08:50:09.357Z,50.834827
2022-08-19T08:51:09.370Z,50.834858
2022-08-19T08:52:09.355Z,50.834820
2022-08-19T08:53:09.328Z,50.834854
2022-08-19T08:54:09.843Z,50.834843
2022-08-19T08:55:10.166Z,50.834869
2022-08-19T08:56:09.321Z,50.834843
2022-08-19T08:57:09.334Z,50.834850
2022-08-19T08:58:09.315Z,50.834854
2022-08-19T08:59:09.303Z,50.834877
2022-08-19T09:00:15.453Z,50.834843
2022-08-19T09:01:10.301Z,50.834862
2022-08-19T09:02:09.282Z,50.834858
2022-08-19T09:03:09.279Z,50.834839
2022-08-19T09:04:09.300Z,50.834850
2022-08-19T09:05:09.243Z,50.834835
2022-08-19T09:06:12.012Z,50.834858
2022-08-19T09:07:18.217Z,50.834858
2022-08-19T09:08:12.074Z,50.834843
2022-08-19T09:09:12.039Z,50.834858
2022-08-19T09:10:09.186Z,50.834831
2022-08-19T09:11:09.180Z,50.834839
2022-08-19T09:12:09.391Z,50.834858
2022-08-19T09:13:09.639Z,50.834831
2022-08-19T09:14:19.188Z,50.834812
2022-08-19T09:15:10.168Z,50.834820
2022-08-19T09:16:09.190Z,50.834846
2022-08-19T09:17:09.161Z,50.834827
2022-08-19T09:18:09.159Z,50.834793
2022-08-19T09:19:10.195Z,50.834805
2022-08-19T09:20:10.047Z,50.834808
2022-08-19T09:21:10.048Z,50.834808
2022-08-19T09:22:09.115Z,50.834827
2022-08-19T09:23:09.097Z,50.834816
2022-08-19T09:24:09.098Z,50.834816
2022-08-19T09:25:09.140Z,50.834805
2022-08-19T09:26:09.113Z,50.834816
2022-08-19T09:27:18.782Z,50.834812
2022-08-19T09:28:15.218Z,50.834801
2022-08-19T09:29:10.034Z,50.834805
2022-08-19T09:30:09.073Z,50.834812
2022-08-19T09:31:09.065Z,50.834812
2022-08-19T09:32:26.470Z,50.834805
2022-08-19T09:33:10.035Z,50.834824
2022-08-19T09:34:09.025Z,50.834812
2022-08-19T09:35:10.150Z,50.834816
2022-08-19T09:36:09.030Z,50.834816
2022-08-19T09:37:41.027Z,50.834805
2022-08-19T09:38:08.968Z,50.834816
2022-08-19T09:39:40.939Z,50.834805
2022-08-19T09:40:12.104Z,50.834805
2022-08-19T09:41:09.087Z,50.834812
2022-08-19T09:42:50.412Z,50.834831
2022-08-19T09:43:13.349Z,50.834816
2022-08-19T09:44:08.951Z,50.834801
2022-08-19T09:45:10.392Z,50.834808
2022-08-19T09:46:08.930Z,50.834801
2022-08-19T09:47:40.846Z,50.834805
2022-08-19T09:48:09.469Z,50.834793
2022-08-19T09:49:08.897Z,50.834797
2022-08-19T09:50:08.917Z,50.834801
2022-08-19T09:51:08.898Z,50.834808
2022-08-19T09:52:08.876Z,50.834820
2022-08-19T09:53:08.876Z,50.834805
2022-08-19T09:54:11.468Z,50.834808
2022-08-19T09:55:08.916Z,50.834812
2022-08-19T09:56:09.340Z,50.834801
2022-08-19T09:57:08.860Z,50.834808
2022-08-19T09:58:08.857Z,50.834824
2022-08-19T09:59:08.954Z,50.834824
2022-08-19T10:00:08.828Z,50.834805
2022-08-19T10:01:08.814Z,50.834789
2022-08-19T10:02:10.617Z,50.834782
2022-08-19T10:03:08.927Z,50.834793
2022-08-19T10:04:20.093Z,50.834782
2022-08-19T10:05:10.807Z,50.834812
2022-08-19T10:06:15.203Z,50.834797
2022-08-19T10:07:09.782Z,50.834785
2022-08-19T10:08:13.755Z,50.834793
2022-08-19T10:09:09.804Z,50.834797
2022-08-19T10:10:08.801Z,50.834797
2022-08-19T10:11:28.307Z,50.834793
2022-08-19T10:12:11.337Z,50.834797
2022-08-19T10:13:09.320Z,50.834801
2022-08-19T10:14:08.760Z,50.834812
2022-08-19T10:15:08.834Z,50.834797
2022-08-19T10:16:08.760Z,50.834808
2022-08-19T10:17:20.009Z,50.834793
2022-08-19T10:18:09.723Z,50.834812
2022-08-19T10:19:08.709Z,50.834801
2022-08-19T10:20:08.712Z,50.834793
2022-08-19T10:21:08.817Z,50.834782
2022-08-19T10:22:10.099Z,50.834789
2022-08-19T10:23:08.692Z,50.834789
2022-08-19T10:24:09.476Z,50.834797
2022-08-19T10:25:08.687Z,50.834801
2022-08-19T10:26:09.325Z,50.834789
2022-08-19T10:27:08.902Z,50.834778
2022-08-19T10:28:10.598Z,50.834774
2022-08-19T10:29:09.205Z,50.834774
2022-08-19T10:30:10.099Z,50.834770
2022-08-19T10:31:08.607Z,50.834766
2022-08-19T10:32:09.728Z,50.834774
2022-08-19T10:33:11.291Z,50.834774
2022-08-19T10:34:10.084Z,50.834789
2022-08-19T10:35:09.573Z,50.834793
2022-08-19T10:36:08.572Z,50.834812
2022-08-19T10:37:10.826Z,50.834820
2022-08-19T10:38:09.566Z,50.834808
2022-08-19T10:39:08.662Z,50.834824
2022-08-19T10:40:09.232Z,50.834808
2022-08-19T10:41:08.560Z,50.834843
2022-08-19T10:42:08.516Z,50.834808
2022-08-19T10:43:09.309Z,50.834812
2022-08-19T10:44:08.541Z,50.834789
2022-08-19T10:45:08.500Z,50.834785
2022-08-19T10:46:13.691Z,50.834801
2022-08-19T10:47:24.372Z,50.834789
2022-08-19T10:48:09.521Z,50.834785
2022-08-19T10:49:09.491Z,50.834774
2022-08-19T10:50:09.305Z,50.834770
2022-08-19T10:51:08.509Z,50.834740
2022-08-19T10:52:10.197Z,50.834732
2022-08-19T10:53:09.808Z,50.834740
2022-08-19T10:54:12.555Z,50.834755
2022-08-19T10:55:08.905Z,50.834747
2022-08-19T10:56:08.472Z,50.834763
2022-08-19T10:57:08.475Z,50.834778
2022-08-19T10:58:08.758Z,50.834770
2022-08-19T10:59:08.454Z,50.834774
2022-08-19T11:00:08.426Z,50.834774
2022-08-19T11:01:08.469Z,50.834778
2022-08-19T11:02:08.422Z,50.834785
2022-08-19T11:03:09.539Z,50.834782
2022-08-19T11:04:08.405Z,50.834793
2022-08-19T11:05:12.630Z,50.834770
2022-08-19T11:06:09.375Z,50.834766
2022-08-19T11:07:08.371Z,50.834759
2022-08-19T11:08:23.150Z,50.834774
2022-08-19T11:09:09.377Z,50.834766
2022-08-19T11:10:11.497Z,50.834751
2022-08-19T11:11:09.343Z,50.834740
2022-08-19T11:12:08.357Z,50.834743
2022-08-19T11:13:08.338Z,50.834766
2022-08-19T11:14:08.345Z,50.834755
2022-08-19T11:15:09.315Z,50.834743
2022-08-19T11:16:08.342Z,50.834747
2022-08-19T11:17:08.367Z,50.834766
2022-08-19T11:18:08.841Z,50.834766
2022-08-19T11:19:08.297Z,50.834766
2022-08-19T11:20:08.300Z,50.834759
2022-08-19T11:21:08.276Z,50.834751
2022-08-19T11:22:08.422Z,50.834747
2022-08-19T11:23:08.254Z,50.834755
2022-08-19T11:24:08.235Z,50.834747
2022-08-19T11:25:08.262Z,50.834755
2022-08-19T11:26:08.242Z,50.834747
2022-08-19T11:27:08.239Z,50.834766
2022-08-19T11:28:08.224Z,50.834763
2022-08-19T11:29:08.237Z,50.834782
2022-08-19T11:30:08.226Z,50.834793
2022-08-19T11:31:08.217Z,50.834774
2022-08-19T11:32:08.183Z,50.834774
2022-08-19T11:33:08.265Z,50.834778
2022-08-19T11:34:08.167Z,50.834782
2022-08-19T11:35:08.226Z,50.834755
2022-08-19T11:36:08.171Z,50.834759
2022-08-19T11:37:08.143Z,50.834751
2022-08-19T11:38:09.865Z,50.834763
2022-08-19T11:39:09.159Z,50.834778
2022-08-19T11:40:08.172Z,50.834778
2022-08-19T11:41:08.133Z,50.834782
2022-08-19T11:42:08.118Z,50.834785
2022-08-19T11:43:08.153Z,50.834793
2022-08-19T11:44:08.123Z,50.834797
2022-08-19T11:45:08.887Z,50.834770
2022-08-19T11:46:08.133Z,50.834763
2022-08-19T11:47:08.903Z,50.834736
2022-08-19T11:48:08.079Z,50.834751
2022-08-19T11:49:13.218Z,50.834770
2022-08-19T11:50:10.072Z,50.834770
2022-08-19T11:51:08.063Z,50.834774
2022-08-19T11:52:08.057Z,50.834797
2022-08-19T11:53:08.039Z,50.834797
2022-08-19T11:54:08.051Z,50.834808
2022-08-19T11:55:08.132Z,50.834801
2022-08-19T11:56:08.018Z,50.834789
2022-08-19T11:57:08.019Z,50.834782
2022-08-19T11:58:07.993Z,50.834793
2022-08-19T11:59:14.102Z,50.834770
2022-08-19T12:00:09.042Z,50.834785
2022-08-19T12:01:07.999Z,50.834789
2022-08-19T12:02:08.001Z,50.834766
2022-08-19T12:03:07.976Z,50.834774